Terminal Aerodrome Forecast
Issued by NWS

Home | Current Version | Previous Version | Text Only | Print | Product List | Glossary On
Versions: 1 2 3 4 5 6 7 8 9 10 11 12 13
000
FTUS45 KRIW 222300
TAFWRL
TAF
KWRL 222326Z 2300/2324 35011KT P6SM SCT070 SCT100
     FM230300 33012KT 5SM -SHRA SCT040 BKN050
     FM231100 VRB05KT 6SM BR VCSH FEW010 BKN090
     FM231500 VRB05KT P6SM SCT050
     FM232200 03007KT P6SM VCSH SCT050=

USA.gov is the U.S. government's official web portal to all federal, state and local government web resources and services.